M I D A S
Marine Information and Data Acquisition System
Tripno 2138 of the Zeeleeuw from 2010-04-22 08:00:00 to 2010-04-22 17:00:00
Back to CruiseResearch ActivitiesStationsMapUnderway DataData graphs

EquipmentUnitsComments
TimeDGPSUTC
LatitudeDGPSDM.mWGS84
LongitudeDGPSDM.mWGS84
SpeedMeteo Stationm/sRelative wind speed
DirectionMeteo StationdegRelative wind direction
TemperatureMeteo Stationdeg CelciusAir temperature
PressureMeteo StationPaAtmospheric pressure
HumidityMeteo Station%Relative humidity
Missing or incorrect values are displayed as -999
Metereological data collected by the RV Zeeleeuw from 2010-04-22 08:00:00 to 2010-04-22 17:00:00
Time Latitude Longitude Speed Direction Temperature Pressure Humidity
2010-04-22 08:01 51°31.391 2°52.66 -999 23 6.6 102000 31
2010-04-22 08:02 51°31.384 2°52.676 -999 23 6.7 102000 30
2010-04-22 08:03 51°31.375 2°52.688 -999 23 6.6 102000 31
2010-04-22 08:04 51°31.368 2°52.691 -999 28 6.7 102000 31
2010-04-22 08:05 51°31.366 2°52.69 -999 33 6.7 101990 30
2010-04-22 08:06 51°31.368 2°52.688 -999 26 6.7 102000 31
2010-04-22 08:07 51°31.371 2°52.687 -999 21 6.7 101990 30
2010-04-22 08:08 51°31.376 2°52.689 -999 26 6.7 101990 31
2010-04-22 08:09 51°31.379 2°52.686 -999 23 6.7 101990 31
2010-04-22 08:10 51°31.38 2°52.679 -999 23 6.7 101990 30
2010-04-22 08:11 51°31.38 2°52.674 -999 23 6.7 101990 31
2010-04-22 08:12 51°31.381 2°52.67 0.7 44 6.7 101980 31
2010-04-22 08:13 51°31.382 2°52.668 0.8 21 6.7 101990 32
2010-04-22 08:14 51°31.383 2°52.668 2 18 6.8 102000 32
2010-04-22 08:15 51°31.383 2°52.669 0.1 24 6.8 102000 33
2010-04-22 08:16 51°31.381 2°52.669 1.3 27 6.9 101990 31
2010-04-22 08:17 51°31.381 2°52.67 1.3 20 7 101990 30
2010-04-22 08:18 51°31.382 2°52.67 0.2 22 7.1 101990 30
2010-04-22 08:19 51°31.383 2°52.671 1.2 25 7.1 101990 31
2010-04-22 08:20 51°31.383 2°52.672 1.6 22 7.2 101990 31
2010-04-22 08:21 51°31.382 2°52.672 1.5 27 7.2 101980 30
2010-04-22 08:22 51°31.382 2°52.671 2 25 7 101990 31
2010-04-22 08:23 51°31.382 2°52.672 1.5 29 6.8 101980 29
2010-04-22 08:24 51°31.381 2°52.673 1.9 24 6.8 102000 31
2010-04-22 08:25 51°31.382 2°52.673 1.3 19 6.7 101980 31
2010-04-22 08:26 51°31.381 2°52.674 1.6 22 6.7 101990 28
2010-04-22 08:27 51°31.382 2°52.675 1.3 27 6.6 101980 29
2010-04-22 08:28 51°31.382 2°52.677 1.3 23 6.6 101980 30
2010-04-22 08:29 51°31.381 2°52.677 2.5 19 6.6 101990 30
2010-04-22 08:30 51°31.38 2°52.678 2.4 21 6.6 101990 30
2010-04-22 08:31 51°31.378 2°52.68 2.2 26 6.5 101990 31
2010-04-22 08:32 51°31.377 2°52.68 1.7 23 6.5 101990 32
2010-04-22 08:33 51°31.376 2°52.68 -999 23 6.5 102000 31
2010-04-22 08:34 51°31.376 2°52.68 -999 23 6.5 101990 29
2010-04-22 08:35 51°31.378 2°52.68 -999 23 6.5 101990 31
2010-04-22 08:36 51°31.38 2°52.68 -999 23 6.5 101990 31
2010-04-22 08:37 51°31.382 2°52.678 -999 25 6.8 102000 32
2010-04-22 08:38 51°31.383 2°52.675 -999 23 6.8 101990 30
2010-04-22 08:39 51°31.382 2°52.673 0.1 23 6.7 101990 30
2010-04-22 08:40 51°31.381 2°52.67 -999 23 6.6 101990 31
2010-04-22 08:41 51°31.382 2°52.67 -999 23 6.6 101980 31
2010-04-22 08:42 51°31.383 2°52.67 -999 23 6.6 101990 29
2010-04-22 08:43 51°31.383 2°52.671 -999 23 6.8 101990 31
2010-04-22 08:44 51°31.381 2°52.671 -999 23 6.9 101990 31
2010-04-22 08:45 51°31.37 2°52.661 -999 23 7.1 101990 30
2010-04-22 08:46 51°31.356 2°52.65 -999 23 7.3 101990 30
2010-04-22 08:47 51°31.347 2°52.643 -999 23 7.3 102000 30
2010-04-22 08:48 51°31.342 2°52.64 -999 23 7.3 102000 30
2010-04-22 08:49 51°31.309 2°52.702 3.6 315 7.4 101990 30
2010-04-22 08:50 51°31.394 2°52.901 7.3 329 7.3 101980 28
2010-04-22 08:51 51°31.577 2°53.15 7.8 335 7 101970 30
2010-04-22 08:52 51°31.763 2°53.412 6.9 336 6.9 101990 31
2010-04-22 08:54 51°32.129 2°53.938 7.8 335 6.8 101970 30
2010-04-22 08:55 51°32.481 2°54.445 7.6 333 6.7 101970 29
2010-04-22 08:56 51°32.677 2°54.688 8.1 337 6.7 101960 30
2010-04-22 08:57 51°32.897 2°54.877 6.4 337 6.6 101960 31
2010-04-22 08:58 51°33.107 2°55.081 7 333 6.5 101960 30
2010-04-22 08:59 51°33.276 2°55.306 5.5 329 6.6 101980 31
2010-04-22 09:00 51°33.3 2°55.532 3.5 302 6.6 101990 31
2010-04-22 09:01 51°33.263 2°55.668 3 304 6.6 101960 30
2010-04-22 09:02 51°33.232 2°55.739 1.8 305 6.6 101990 31
2010-04-22 09:03 51°33.219 2°55.792 1.5 311 6.7 101980 29
2010-04-22 09:04 51°33.21 2°55.834 0.2 306 6.8 101980 30
2010-04-22 09:05 51°33.207 2°55.87 -999 306 6.8 101970 31
2010-04-22 09:06 51°33.207 2°55.901 -999 306 6.9 101980 31
2010-04-22 09:07 51°33.208 2°55.928 -999 306 7 101980 31
2010-04-22 09:08 51°33.211 2°55.952 -999 306 7.1 101990 31
2010-04-22 09:09 51°33.214 2°55.974 -999 306 7.1 101980 31
2010-04-22 09:10 51°33.218 2°55.996 0.5 308 7.1 101980 31
2010-04-22 09:11 51°33.222 2°56.016 -999 306 7.2 101980 30
2010-04-22 09:12 51°33.225 2°56.036 -999 306 7.2 101980 31
2010-04-22 09:13 51°33.23 2°56.053 -999 306 7.2 101990 31
2010-04-22 09:14 51°33.235 2°56.069 -999 307 7.2 101990 31
2010-04-22 09:15 51°33.24 2°56.085 -999 54 7.3 101980 31
2010-04-22 09:16 51°33.236 2°56.107 -999 306 7.3 101990 31
2010-04-22 09:17 51°33.223 2°56.182 1.9 304 7.3 101980 30
2010-04-22 09:18 51°33.218 2°56.266 1.3 308 7.3 101980 31
2010-04-22 09:19 51°33.22 2°56.333 -999 306 7.3 101980 29
2010-04-22 09:20 51°33.225 2°56.39 -999 306 7.3 101980 32
2010-04-22 09:21 51°33.231 2°56.438 -999 306 7.3 101990 31
2010-04-22 09:22 51°33.237 2°56.479 0.1 306 7.3 101980 31
2010-04-22 09:23 51°33.242 2°56.515 0.1 306 7.3 101990 31
2010-04-22 09:24 51°33.246 2°56.546 -999 306 7.3 101980 31
2010-04-22 09:25 51°33.25 2°56.573 0.1 306 7.4 101980 31
2010-04-22 09:26 51°33.256 2°56.598 -999 306 7.4 101980 31
2010-04-22 09:27 51°33.264 2°56.622 -999 306 7.4 101980 30
2010-04-22 09:28 51°33.274 2°56.644 -999 306 7.5 101980 32
2010-04-22 09:29 51°33.285 2°56.664 2 309 7.5 101980 32
2010-04-22 09:30 51°33.296 2°56.684 1.5 310 7.6 101970 31
2010-04-22 09:31 51°33.306 2°56.703 1.2 309 7.6 101970 31
2010-04-22 09:32 51°33.317 2°56.721 1.2 328 7.5 101980 31
2010-04-22 09:33 51°33.327 2°56.732 0.1 306 7.4 101980 30
2010-04-22 09:34 51°33.337 2°56.735 -999 306 7.3 101970 31
2010-04-22 09:35 51°33.346 2°56.736 -999 306 7.3 101980 30
2010-04-22 09:36 51°33.355 2°56.737 -999 306 7.4 101980 31
2010-04-22 09:37 51°33.364 2°56.743 -999 306 7.4 101980 31
2010-04-22 09:38 51°33.373 2°56.752 -999 306 7.4 101970 31
2010-04-22 09:39 51°33.381 2°56.764 -999 306 7.4 101970 31
2010-04-22 09:40 51°33.389 2°56.777 -999 306 7.5 101990 32
2010-04-22 09:41 51°33.396 2°56.792 -999 306 7.5 101980 32
2010-04-22 09:42 51°33.404 2°56.807 -999 307 7.6 101980 32
2010-04-22 09:43 51°33.412 2°56.824 -999 328 7.6 101980 30
2010-04-22 09:44 51°33.42 2°56.84 -999 307 7.6 101970 31
2010-04-22 09:45 51°33.428 2°56.857 -999 330 7.6 101970 31
2010-04-22 09:46 51°33.436 2°56.868 -999 307 7.6 101970 31
2010-04-22 09:47 51°33.444 2°56.873 -999 306 7.7 101970 31
2010-04-22 09:48 51°33.453 2°56.875 -999 307 7.9 101970 31
2010-04-22 09:49 51°33.462 2°56.881 -999 306 8.2 101960 31
2010-04-22 09:50 51°33.469 2°56.889 -999 306 8.5 101970 31
2010-04-22 09:51 51°33.475 2°56.899 -999 307 8.8 101970 31
2010-04-22 09:52 51°33.481 2°56.911 -999 53 9.1 101970 31
2010-04-22 09:53 51°33.486 2°56.923 -999 53 9 101970 30
2010-04-22 09:54 51°33.493 2°56.931 -999 54 8.9 101970 30
2010-04-22 09:55 51°33.503 2°56.935 -999 54 8.8 101970 30
2010-04-22 09:56 51°33.513 2°56.939 -999 306 8.8 101960 30
2010-04-22 09:57 51°33.521 2°56.944 -999 307 8.8 101970 30
2010-04-22 09:58 51°33.529 2°56.952 -999 54 8.9 101970 31
2010-04-22 09:59 51°33.535 2°56.962 -999 54 9 101960 31
2010-04-22 10:00 51°33.541 2°56.974 -999 306 9.2 101970 31
2010-04-22 10:01 51°33.546 2°56.986 -999 54 9.4 101960 31
2010-04-22 10:02 51°33.551 2°57 -999 53 9.6 101960 31
2010-04-22 10:03 51°33.555 2°57.015 -999 58 9.7 101960 30
2010-04-22 10:04 51°33.558 2°57.028 -999 54 9.9 101960 30
2010-04-22 10:05 51°33.561 2°57.041 -999 54 9.7 101960 30
2010-04-22 10:06 51°33.563 2°57.055 -999 53 9.6 101960 30
2010-04-22 10:07 51°33.564 2°57.068 -999 55 9.5 101960 31
2010-04-22 10:08 51°33.565 2°57.08 -999 307 9.5 101970 30
2010-04-22 10:09 51°33.565 2°57.096 0.1 307 9.5 101970 30
2010-04-22 10:10 51°33.523 2°57.104 -999 332 9.5 101960 31
2010-04-22 10:11 51°33.409 2°56.991 3.5 337 9.2 101960 31
2010-04-22 10:12 51°33.275 2°56.794 4.8 334 8.6 101950 32
2010-04-22 10:13 51°33.165 2°56.569 3.7 331 8.1 101950 31
2010-04-22 10:14 51°33.098 2°56.435 1.1 335 7.8 101960 31
2010-04-22 10:15 51°33.076 2°56.352 -999 328 7.7 101960 32
2010-04-22 10:16 51°33.07 2°56.291 -999 354 7.8 101960 32
2010-04-22 10:17 51°33.073 2°56.287 -999 54 7.8 101950 32
2010-04-22 10:18 51°33.072 2°56.408 2.1 52 7.7 101960 31
2010-04-22 10:19 51°33.061 2°56.529 0.1 54 7.5 101950 31
2010-04-22 10:20 51°33.05 2°56.608 -999 55 7.4 101960 32
2010-04-22 10:21 51°33.037 2°56.662 -999 32 7.4 101950 32
2010-04-22 10:22 51°33.025 2°56.706 -999 21 7.4 101970 32
2010-04-22 10:23 51°33.018 2°56.745 -999 22 7.5 101950 32
2010-04-22 10:24 51°33.014 2°56.779 -999 22 7.6 101950 32
2010-04-22 10:25 51°33.013 2°56.811 -999 19 7.7 101950 32
2010-04-22 10:26 51°33.014 2°56.839 -999 26 7.7 101950 32
2010-04-22 10:27 51°33.019 2°56.864 -999 42 7.7 101950 33
2010-04-22 10:28 51°33.025 2°56.883 -999 25 7.8 101950 33
2010-04-22 10:29 51°33.029 2°56.901 -999 32 7.8 101950 32
2010-04-22 10:30 51°33.034 2°56.915 -999 54 7.7 101950 33
2010-04-22 10:31 51°33.039 2°56.924 -999 44 7.6 101950 32
2010-04-22 10:32 51°33.043 2°56.931 -999 43 7.6 101950 33
2010-04-22 10:33 51°33.046 2°56.937 -999 54 7.5 101950 32
2010-04-22 10:34 51°33.048 2°56.942 -999 54 7.5 101950 32
2010-04-22 10:35 51°33.048 2°56.946 -999 43 7.5 101950 32
2010-04-22 10:36 51°33.048 2°56.948 -999 54 7.5 101950 32
2010-04-22 10:37 51°33.047 2°56.948 -999 54 7.5 101940 32
2010-04-22 10:38 51°33.047 2°56.946 -999 38 7.5 101950 33
2010-04-22 10:39 51°33.047 2°56.943 -999 54 7.5 101950 33
2010-04-22 10:40 51°33.04 2°56.896 0.1 350 7.5 101940 33
2010-04-22 10:41 51°33.024 2°56.723 2.8 346 7.3 101940 32
2010-04-22 10:42 51°33.005 2°56.479 3.9 339 7.1 101950 32
2010-04-22 10:43 51°33.018 2°56.22 4.2 336 7.1 101940 33
2010-04-22 10:44 51°33.064 2°56.001 3.3 340 7 101940 34
2010-04-22 10:45 51°33.065 2°55.89 0.1 16 7 101940 33
2010-04-22 10:46 51°33.059 2°55.869 -999 54 7 101940 33
2010-04-22 10:47 51°33.053 2°55.858 -999 54 7 101940 32
2010-04-22 10:48 51°33.045 2°55.852 -999 54 7.1 101940 33
2010-04-22 10:49 51°33.04 2°55.849 1.6 57 7.4 101930 33
2010-04-22 10:50 51°33.03 2°55.851 1.3 330 7.5 101940 32
2010-04-22 10:51 51°33.018 2°55.866 -999 306 7.6 101940 32
2010-04-22 10:52 51°33.012 2°55.891 1.7 301 7.8 101930 32
2010-04-22 10:53 51°33.016 2°55.919 1.6 303 7.9 101940 31
2010-04-22 10:54 51°33.027 2°55.941 1.8 331 7.9 101930 31
2010-04-22 10:55 51°33.044 2°55.957 0.2 307 7.8 101930 32
2010-04-22 10:56 51°33.066 2°55.967 1.8 326 7.8 101930 32
2010-04-22 10:57 51°33.086 2°55.969 1.5 335 7.8 101930 32
2010-04-22 10:58 51°33.104 2°55.959 0.8 342 7.8 101930 32
2010-04-22 10:59 51°33.116 2°55.936 0.1 358 7.6 101940 33
2010-04-22 11:02 51°33.133 2°55.866 -999 353 7.3 101930 33
2010-04-22 11:03 51°33.148 2°55.846 -999 330 7.2 101940 33
2010-04-22 11:04 51°33.163 2°55.839 0.2 338 7.2 101930 33
2010-04-22 11:05 51°33.176 2°55.846 1.4 302 7.3 101930 32
2010-04-22 11:06 51°33.18 2°55.859 -999 236 7.4 101930 31
2010-04-22 11:07 51°33.18 2°55.868 2.2 308 7.6 101930 33
2010-04-22 11:08 51°33.177 2°55.875 -999 283 7.8 101930 33
2010-04-22 11:09 51°33.174 2°55.88 -999 282 8 101940 32
2010-04-22 11:10 51°33.171 2°55.883 0.1 306 8.2 101940 32
2010-04-22 11:11 51°33.167 2°55.884 -999 250 8.4 101940 32
2010-04-22 11:12 51°33.163 2°55.885 -999 257 8.5 101930 32
2010-04-22 11:13 51°33.158 2°55.885 -999 238 8.7 101930 32
2010-04-22 11:14 51°33.154 2°55.884 -999 306 8.7 101940 31
2010-04-22 11:15 51°33.149 2°55.882 -999 317 8.7 101930 31
2010-04-22 11:16 51°33.143 2°55.88 -999 306 8.8 101940 31
2010-04-22 11:17 51°33.137 2°55.877 -999 283 8.8 101930 31
2010-04-22 11:18 51°33.131 2°55.873 -999 248 8.9 101930 31
2010-04-22 11:19 51°33.124 2°55.869 1.7 285 9 101930 32
2010-04-22 11:20 51°33.117 2°55.864 1.1 248 9 101930 31
2010-04-22 11:21 51°33.109 2°55.858 -999 282 9 101920 31
2010-04-22 11:22 51°33.1 2°55.85 -999 245 9.1 101930 30
2010-04-22 11:23 51°33.092 2°55.841 -999 282 9.1 101930 31
2010-04-22 11:24 51°33.084 2°55.831 -999 250 9.2 101930 31
2010-04-22 11:25 51°33.075 2°55.821 -999 282 9.2 101930 31
2010-04-22 11:26 51°33.067 2°55.811 -999 306 9.3 101940 31
2010-04-22 11:27 51°33.059 2°55.802 -999 283 9.3 101930 31
2010-04-22 11:28 51°33.05 2°55.794 -999 306 9.4 101940 31
2010-04-22 11:29 51°33.041 2°55.785 -999 39 9.5 101930 31
2010-04-22 11:30 51°33.031 2°55.781 -999 306 9.4 101940 31
2010-04-22 11:31 51°33.027 2°55.815 2.5 34 9.3 101940 32
2010-04-22 11:32 51°33.056 2°55.849 4.1 333 9.1 101930 32
2010-04-22 11:33 51°33.168 2°55.886 5 331 8.7 101920 33
2010-04-22 11:34 51°33.273 2°55.884 2.9 333 8.3 101930 32
2010-04-22 11:35 51°33.314 2°55.853 2.2 343 8.1 101920 34
2010-04-22 11:36 51°33.332 2°55.82 1.4 348 8 101930 35
2010-04-22 11:37 51°33.342 2°55.794 1.1 357 7.6 101920 33
2010-04-22 11:38 51°33.343 2°55.773 0.1 2 7.4 101920 34
2010-04-22 11:39 51°33.338 2°55.764 0.1 8 7.4 101920 34
2010-04-22 11:40 51°33.328 2°55.764 0.1 16 7.5 101930 34
2010-04-22 11:41 51°33.318 2°55.766 -999 15 7.4 101930 34
2010-04-22 11:42 51°33.309 2°55.766 -999 25 7.4 101930 34
2010-04-22 11:43 51°33.3 2°55.765 -999 20 7.4 101920 34
2010-04-22 11:44 51°33.291 2°55.765 0.4 26 7.4 101920 34
2010-04-22 11:45 51°33.281 2°55.763 1.1 27 7.4 101920 33
2010-04-22 11:46 51°33.272 2°55.759 -999 30 7.4 101920 34
2010-04-22 11:47 51°33.263 2°55.755 1.8 38 7.4 101920 34
2010-04-22 11:48 51°33.255 2°55.749 1.2 35 7.3 101920 35
2010-04-22 11:49 51°33.246 2°55.744 -999 36 7.3 101920 34
2010-04-22 11:50 51°33.237 2°55.739 -999 36 7.3 101930 34
2010-04-22 11:51 51°33.228 2°55.733 -999 29 7.3 101930 34
2010-04-22 11:52 51°33.218 2°55.726 -999 55 7.3 101930 34
2010-04-22 11:53 51°33.21 2°55.72 -999 78 7.4 101930 34
2010-04-22 11:54 51°33.206 2°55.722 0.1 43 7.4 101930 34
2010-04-22 11:55 51°33.199 2°55.717 1.6 27 7.3 101930 34
2010-04-22 11:56 51°33.186 2°55.638 2.5 359 7.2 101930 35
2010-04-22 11:57 51°33.238 2°55.593 4.8 328 7.1 101920 35
2010-04-22 11:58 51°33.278 2°55.638 2.4 277 7.2 101920 34
2010-04-22 11:59 51°33.294 2°55.685 2.2 301 7.2 101920 33
2010-04-22 12:00 51°33.305 2°55.727 3.1 285 7.4 101920 36
2010-04-22 12:01 51°33.312 2°55.759 1.7 311 7.5 101920 35
2010-04-22 12:02 51°33.316 2°55.782 1.4 287 7.5 101920 34
2010-04-22 12:03 51°33.32 2°55.799 -999 303 7.5 101920 34
2010-04-22 12:04 51°33.336 2°55.831 2.7 278 7.6 101910 34
2010-04-22 12:05 51°33.356 2°55.876 2.6 302 7.6 101920 34
2010-04-22 12:06 51°33.372 2°55.925 1.9 278 7.6 101910 33
2010-04-22 12:07 51°33.38 2°55.961 2.5 280 7.7 101910 34
2010-04-22 12:08 51°33.382 2°55.987 2.2 286 7.8 101920 34
2010-04-22 12:09 51°33.381 2°56.003 2 282 7.9 101910 33
2010-04-22 12:10 51°33.376 2°56.014 1.9 282 7.9 101920 34
2010-04-22 12:11 51°33.369 2°56.019 2.1 306 7.9 101920 34
2010-04-22 12:12 51°33.36 2°56.026 2.2 282 7.9 101920 34
2010-04-22 12:13 51°33.348 2°56.045 2.2 304 8 101920 33
2010-04-22 12:14 51°33.325 2°56.065 0.1 282 8 101920 33
2010-04-22 12:15 51°33.291 2°56.073 -999 78 8 101920 33
2010-04-22 12:16 51°33.256 2°56.08 -999 306 8.1 101920 34
2010-04-22 12:17 51°33.229 2°56.102 2.1 282 8.2 101920 33
2010-04-22 12:18 51°33.213 2°56.127 1.7 303 8.3 101920 33
2010-04-22 12:19 51°33.2 2°56.143 1.6 283 8.4 101910 34
2010-04-22 12:20 51°33.187 2°56.154 2.1 308 8.5 101900 34
2010-04-22 12:21 51°33.173 2°56.16 2.5 284 8.5 101900 33
2010-04-22 12:22 51°33.158 2°56.162 2.5 279 8.5 101910 33
2010-04-22 12:23 51°33.144 2°56.162 2.2 308 8.6 101910 33
2010-04-22 12:24 51°33.128 2°56.16 2.2 278 8.5 101910 33
2010-04-22 12:25 51°33.111 2°56.155 1.6 306 8.5 101910 34
2010-04-22 12:26 51°33.095 2°56.148 1.9 279 8.4 101900 34
2010-04-22 12:27 51°33.078 2°56.141 2.1 286 8.3 101900 33
2010-04-22 12:28 51°33.061 2°56.133 2.2 285 8.3 101900 35
2010-04-22 12:29 51°33.045 2°56.125 2.2 306 8.3 101900 33
2010-04-22 12:30 51°33.027 2°56.115 2 285 8.3 101900 33
2010-04-22 12:31 51°33.009 2°56.104 2.3 302 8.3 101900 33
2010-04-22 12:32 51°32.99 2°56.092 2.2 278 8.2 101900 34
2010-04-22 12:33 51°32.971 2°56.081 2 307 8.2 101910 33
2010-04-22 12:34 51°32.953 2°56.073 2.8 284 8.2 101890 34
2010-04-22 12:35 51°32.943 2°56.085 2.3 280 8.1 101900 32
2010-04-22 12:36 51°32.955 2°56.091 3.4 284 8 101900 33
2010-04-22 12:37 51°33.066 2°56.068 6.1 330 7.9 101890 34
2010-04-22 12:38 51°33.222 2°56.066 6.6 280 7.7 101890 33
2010-04-22 12:39 51°33.395 2°56.129 6.3 332 7.7 101880 33
2010-04-22 12:40 51°33.501 2°56.102 3.9 282 7.6 101890 34
2010-04-22 12:41 51°33.548 2°56.084 2.8 339 7.5 101900 33
2010-04-22 12:42 51°33.571 2°56.077 1.9 285 7.5 101900 33
2010-04-22 12:43 51°33.582 2°56.075 1.9 301 7.5 101900 33
2010-04-22 12:44 51°33.585 2°56.071 1.4 279 7.5 101900 34
2010-04-22 12:45 51°33.583 2°56.065 1.5 302 7.6 101900 33
2010-04-22 12:46 51°33.577 2°56.058 1.7 287 7.7 101900 33
2010-04-22 12:47 51°33.57 2°56.048 0.8 303 7.8 101890 33
2010-04-22 12:48 51°33.56 2°56.037 1.5 287 7.9 101900 33
2010-04-22 12:49 51°33.549 2°56.026 1.3 328 8 101900 33
2010-04-22 12:50 51°33.536 2°56.013 2 277 8 101900 33
2010-04-22 12:51 51°33.52 2°55.999 2.1 308 8 101900 33
2010-04-22 12:52 51°33.503 2°55.984 1.7 308 8 101900 33
2010-04-22 12:53 51°33.485 2°55.967 1.6 306 8.1 101900 32
2010-04-22 12:54 51°33.467 2°55.949 2 286 8.1 101900 32
2010-04-22 12:55 51°33.448 2°55.93 1.6 308 8.1 101890 32
2010-04-22 12:56 51°33.429 2°55.91 2.5 282 8.2 101890 34
2010-04-22 12:57 51°33.409 2°55.89 2.1 279 8.2 101900 32
2010-04-22 12:58 51°33.389 2°55.87 2.3 284 8.2 101890 32
2010-04-22 12:59 51°33.369 2°55.85 -999 282 8.2 101900 34
2010-04-22 13:00 51°33.35 2°55.83 0.1 282 8.1 101900 32
2010-04-22 13:01 51°33.33 2°55.811 1.5 302 8.2 101890 33
2010-04-22 13:02 51°33.309 2°55.792 -999 306 8.1 101890 32
2010-04-22 13:03 51°33.285 2°55.784 0.1 282 8 101900 33
2010-04-22 13:04 51°33.253 2°55.877 2.7 284 8.1 101890 32
2010-04-22 13:05 51°33.248 2°56.054 4.8 321 8 101880 34
2010-04-22 13:06 51°33.272 2°56.276 5.1 279 7.8 101880 33
2010-04-22 13:07 51°33.32 2°56.481 4.1 282 7.8 101880 34
2010-04-22 13:08 51°33.367 2°56.558 2.5 302 7.8 101890 32
2010-04-22 13:09 51°33.399 2°56.569 1.9 285 7.8 101890 33
2010-04-22 13:10 51°33.416 2°56.559 2.3 334 7.9 101890 33
2010-04-22 13:11 51°33.422 2°56.543 2.6 284 7.9 101880 32
2010-04-22 13:12 51°33.421 2°56.525 1.5 342 7.8 101890 34
2010-04-22 13:13 51°33.415 2°56.506 2 279 7.8 101890 33
2010-04-22 13:14 51°33.405 2°56.487 1.7 337 7.8 101880 32
2010-04-22 13:15 51°33.392 2°56.467 1.6 285 7.7 101880 34
2010-04-22 13:16 51°33.377 2°56.446 1.7 331 7.7 101880 34
2010-04-22 13:17 51°33.36 2°56.427 -999 282 7.8 101870 33
2010-04-22 13:18 51°33.342 2°56.406 -999 329 7.9 101880 33
2010-04-22 13:19 51°33.322 2°56.386 1.6 282 8 101870 33
2010-04-22 13:20 51°33.301 2°56.366 -999 306 8.1 101880 33
2010-04-22 13:21 51°33.278 2°56.346 1.7 279 8.1 101870 33
2010-04-22 13:22 51°33.253 2°56.326 1.5 305 8.1 101870 32
2010-04-22 13:23 51°33.227 2°56.305 1.5 282 8.1 101870 34
2010-04-22 13:24 51°33.201 2°56.282 1.2 303 8.2 101870 33
2010-04-22 13:25 51°33.174 2°56.258 1.3 285 8.2 101860 33
2010-04-22 13:26 51°33.148 2°56.231 -999 301 8.4 101870 34
2010-04-22 13:27 51°33.122 2°56.203 1.7 283 8.4 101870 32
2010-04-22 13:28 51°33.097 2°56.175 2.1 303 8.5 101860 34
2010-04-22 13:29 51°33.073 2°56.147 1.9 283 8.6 101870 33
2010-04-22 13:30 51°33.05 2°56.119 1.7 309 8.6 101880 32
2010-04-22 13:31 51°33.027 2°56.093 1.2 281 8.5 101870 31
2010-04-22 13:32 51°33.003 2°56.083 2.9 305 8.4 101870 31
2010-04-22 13:33 51°32.983 2°56.115 2.6 284 8.3 101870 32
2010-04-22 13:34 51°32.972 2°56.146 2.7 307 8.2 101860 31
2010-04-22 13:35 51°32.967 2°56.176 1.8 280 8.1 101870 32
2010-04-22 13:36 51°32.966 2°56.204 1.8 301 8.1 101870 32
2010-04-22 13:37 51°32.969 2°56.229 2.4 282 8.1 101850 33
2010-04-22 13:38 51°32.974 2°56.25 2.3 301 8.1 101850 31
2010-04-22 13:39 51°32.981 2°56.266 3.4 282 8.1 101850 33
2010-04-22 13:40 51°32.994 2°56.276 2 330 8 101850 31
2010-04-22 13:41 51°33.016 2°56.279 3.1 278 7.9 101850 33
2010-04-22 13:42 51°33.069 2°56.259 5.2 336 8 101850 34
2010-04-22 13:43 51°33.17 2°56.115 6.2 277 7.8 101850 33
2010-04-22 13:44 51°33.258 2°55.85 6.5 283 7.7 101850 34
2010-04-22 13:45 51°33.294 2°55.491 6.1 338 7.6 101850 33
2010-04-22 13:46 51°33.299 2°55.124 6.8 284 7.5 101840 32
2010-04-22 13:47 51°33.225 2°54.786 4 286 7.5 101840 34
2010-04-22 13:48 51°33.002 2°54.674 3.4 331 7.4 101860 32
2010-04-22 13:49 51°32.767 2°54.619 2.9 279 7.5 101850 32
2010-04-22 13:50 51°32.528 2°54.564 3.5 330 7.5 101840 34
2010-04-22 13:51 51°32.281 2°54.507 3.7 327 7.6 101840 34
2010-04-22 13:52 51°32.032 2°54.448 3.9 328 7.7 101840 33
2010-04-22 13:53 51°31.782 2°54.393 3.5 331 7.7 101840 33
2010-04-22 13:54 51°31.534 2°54.339 2.9 334 7.7 101830 33
2010-04-22 13:55 51°31.284 2°54.28 3.1 331 7.7 101830 32
2010-04-22 13:56 51°31.034 2°54.227 3 331 7.8 101830 34
2010-04-22 13:57 51°30.784 2°54.171 2.5 330 7.8 101830 33
2010-04-22 13:58 51°30.538 2°54.116 1.8 331 7.7 101830 32
2010-04-22 13:59 51°30.295 2°54.055 1.8 337 7.7 101830 33
2010-04-22 14:00 51°30.053 2°53.967 3.4 285 7.7 101820 33
2010-04-22 14:01 51°29.814 2°53.81 2.9 337 7.7 101820 34
2010-04-22 14:02 51°29.582 2°53.644 3.9 339 7.6 101820 34
2010-04-22 14:03 51°29.357 2°53.461 2.9 339 7.6 101820 33
2010-04-22 14:04 51°29.138 2°53.262 3.9 345 7.4 101820 33
2010-04-22 14:05 51°28.895 2°53.165 2.7 329 7.5 101820 35
2010-04-22 14:06 51°28.645 2°53.138 2.4 325 7.5 101820 34
2010-04-22 14:07 51°28.397 2°53.112 2.3 328 7.6 101820 34
2010-04-22 14:08 51°28.148 2°53.081 2.6 317 7.7 101820 34
2010-04-22 14:09 51°27.897 2°53.054 1.9 327 7.7 101820 34
2010-04-22 14:10 51°27.647 2°53.024 3 325 7.8 101820 33
2010-04-22 14:11 51°27.399 2°52.996 3.3 319 7.8 101820 35
2010-04-22 14:12 51°27.15 2°52.966 2.3 319 7.9 101820 32
2010-04-22 14:13 51°26.9 2°52.93 2.5 326 7.9 101820 34
2010-04-22 14:14 51°26.65 2°52.897 2.6 326 7.9 101810 33
2010-04-22 14:15 51°26.399 2°52.86 2.1 321 7.9 101820 32
2010-04-22 14:16 51°26.147 2°52.82 2.5 316 7.9 101810 34
2010-04-22 14:17 51°25.895 2°52.78 2.5 324 7.9 101810 34
2010-04-22 14:18 51°25.645 2°52.742 2.7 324 7.9 101810 33
2010-04-22 14:19 51°25.394 2°52.699 3 323 8 101800 35
2010-04-22 14:20 51°25.144 2°52.661 2.1 325 8 101800 32
2010-04-22 14:21 51°24.896 2°52.625 2.9 34 8 101800 33
2010-04-22 14:22 51°24.649 2°52.593 1.7 34 8 101800 34
2010-04-22 14:23 51°24.403 2°52.588 3.4 34 8 101800 32
2010-04-22 14:24 51°24.161 2°52.629 2.8 277 8 101790 34
2010-04-22 14:25 51°23.916 2°52.673 2.3 231 8 101790 35
2010-04-22 14:26 51°23.673 2°52.72 3.4 34 8 101790 33
2010-04-22 14:27 51°23.427 2°52.757 2.6 37 7.9 101790 33
2010-04-22 14:28 51°23.179 2°52.79 2 319 7.9 101790 33
2010-04-22 14:29 51°22.933 2°52.825 2.5 319 7.9 101790 34
2010-04-22 14:30 51°22.685 2°52.861 2.3 315 7.9 101790 33
2010-04-22 14:31 51°22.435 2°52.834 1.6 305 7.9 101790 34
2010-04-22 14:32 51°22.189 2°52.797 1.9 323 8 101790 35
2010-04-22 14:33 51°21.946 2°52.75 1.3 334 8.1 101790 34
2010-04-22 14:34 51°21.702 2°52.712 1.5 320 8.2 101780 35
2010-04-22 14:35 51°21.459 2°52.675 2 315 8.3 101780 35
2010-04-22 14:36 51°21.213 2°52.642 0.8 320 8.3 101780 34
2010-04-22 14:37 51°20.967 2°52.608 0.7 33 8.3 101780 35
2010-04-22 14:38 51°20.721 2°52.575 1.8 235 8.3 101780 33
2010-04-22 14:39 51°20.475 2°52.542 0.6 35 8.4 101780 35
2010-04-22 14:40 51°20.228 2°52.507 0.8 32 8.5 101770 34
2010-04-22 14:41 51°19.979 2°52.476 0.9 36 8.6 101770 34
2010-04-22 14:42 51°19.731 2°52.442 2.1 309 8.6 101770 35
2010-04-22 14:43 51°19.484 2°52.407 2.4 39 8.6 101770 33
2010-04-22 14:44 51°19.238 2°52.375 1.4 283 8.5 101770 33
2010-04-22 14:45 51°18.992 2°52.341 2 241 8.4 101770 34
2010-04-22 14:46 51°18.746 2°52.309 0.1 235 8.4 101770 33
2010-04-22 14:47 51°18.501 2°52.283 0.1 319 8.5 101770 33
2010-04-22 14:48 51°18.255 2°52.256 1.6 241 8.5 101760 33
2010-04-22 14:49 51°18.009 2°52.227 0.8 246 8.6 101760 34
2010-04-22 14:50 51°17.763 2°52.201 2.2 302 8.7 101760 33
2010-04-22 14:51 51°17.516 2°52.19 2.3 303 8.7 101760 33
2010-04-22 14:52 51°17.271 2°52.229 4.3 283 8.6 101750 33
2010-04-22 14:53 51°17.04 2°52.331 4.2 241 8.5 101750 33
2010-04-22 14:54 51°16.82 2°52.483 5 285 8.4 101750 33
2010-04-22 14:55 51°16.613 2°52.668 6.2 306 8.3 101740 33
2010-04-22 14:56 51°16.404 2°52.848 6.1 280 8.2 101740 34
2010-04-22 14:57 51°16.195 2°53.027 5.4 284 8.2 101730 34
2010-04-22 14:58 51°15.986 2°53.199 5.2 304 8.1 101730 34
2010-04-22 14:59 51°15.791 2°53.406 6.6 282 8.1 101720 34
2010-04-22 15:00 51°15.615 2°53.643 6.4 310 8 101730 35
2010-04-22 15:01 51°15.444 2°53.884 7.3 278 8 101710 34
2010-04-22 15:02 51°15.273 2°54.126 7 303 7.9 101720 35
2010-04-22 15:03 51°15.099 2°54.363 6.6 284 7.9 101720 34
2010-04-22 15:04 51°14.912 2°54.575 6.2 301 7.9 101710 33
2010-04-22 15:05 51°14.719 2°54.774 5.2 278 7.9 101710 33
2010-04-22 15:06 51°14.536 2°54.959 6.2 308 7.9 101720 35
2010-04-22 15:07 51°14.37 2°55.161 5.9 306 8 101720 34
2010-04-22 15:08 51°14.228 2°55.32 4.7 284 8 101730 34
2010-04-22 15:09 51°14.127 2°55.409 4.3 311 8.1 101740 36
2010-04-22 15:10 51°14.03 2°55.482 3.1 55 8.1 101730 34
2010-04-22 15:11 51°13.909 2°55.571 3.3 77 8.1 101720 35
2010-04-22 15:12 51°13.792 2°55.666 4.3 304 8 101720 34
2010-04-22 15:12 51°13.769 2°55.692 5.9 257 8.1 101730 35
2010-04-22 15:14 51°13.685 2°55.892 4.8 307 8 101710 33
2010-04-22 15:15 51°13.661 2°55.956 3.9 83 8.1 101720 33